Time;durP1;ratioP1;P1;durP2;ratioP2;P2;SDS_P1;SDS_P2;PMS_P1;PMS_P2;Temp;Humidity;BMP_temperature;BMP_pressure;BME280_temperature;BME280_humidity;BME280_pressure;Samples;Min_cycle;Max_cycle;Signal;HPM_P1;HPM_P2
2023/08/24 00:02:06;;;;;;;2.60;2.15;;;;;;;22.99;100.00;97892.41;1224067;75;2920893;-66
2023/08/24 00:04:39;;;;;;;2.70;2.30;;;;;;;22.96;100.00;97892.19;1223547;75;2931014;-67
2023/08/24 00:07:11;;;;;;;3.45;2.65;;;;;;;22.87;100.00;97887.16;1222386;75;2925673;-66
2023/08/24 00:09:44;;;;;;;3.05;2.75;;;;;;;22.83;100.00;97886.03;1223629;75;2926588;-68
2023/08/24 00:12:17;;;;;;;2.50;2.30;;;;;;;22.82;100.00;97890.84;1221988;75;2926805;-68
2023/08/24 00:14:52;;;;;;;2.65;2.40;;;;;;;22.77;100.00;97883.41;1223747;75;2922874;-67
2023/08/24 00:17:25;;;;;;;2.65;2.25;;;;;;;22.81;100.00;97881.00;1223363;75;2927003;-69
2023/08/24 00:19:58;;;;;;;3.10;2.40;;;;;;;22.81;100.00;97878.22;1223768;75;2924463;-66
2023/08/24 00:22:30;;;;;;;2.95;2.20;;;;;;;22.81;100.00;97883.78;1222890;75;2927258;-69
2023/08/24 00:25:03;;;;;;;2.45;2.25;;;;;;;22.62;100.00;97886.16;1223087;75;2927305;-66
2023/08/24 00:27:37;;;;;;;2.50;2.30;;;;;;;22.67;100.00;97879.66;1223375;75;2924135;-68
2023/08/24 00:30:14;;;;;;;2.60;2.20;;;;;;;22.68;100.00;97876.31;1223234;75;2923987;-68
2023/08/24 00:32:46;;;;;;;2.45;2.20;;;;;;;22.67;100.00;97885.97;1223398;75;2927795;-66
2023/08/24 00:35:19;;;;;;;2.55;2.35;;;;;;;22.53;100.00;97881.84;1222701;75;2925641;-67
2023/08/24 00:37:52;;;;;;;3.20;2.55;;;;;;;22.48;100.00;97871.59;1223747;75;2931708;-67
2023/08/24 00:40:25;;;;;;;4.85;4.35;;;;;;;22.31;100.00;97874.88;1223770;75;2923205;-67
2023/08/24 00:42:57;;;;;;;4.15;3.75;;;;;;;22.44;100.00;97885.16;1223835;75;2919761;-68
2023/08/24 00:45:36;;;;;;;3.85;3.45;;;;;;;22.34;100.00;97882.13;1222896;75;2922833;-67
2023/08/24 00:48:09;;;;;;;5.30;4.50;;;;;;;22.05;100.00;97876.56;1224008;75;2948905;-67
2023/08/24 00:50:42;;;;;;;4.55;3.55;;;;;;;22.40;100.00;97893.16;1223065;75;2926412;-68
2023/08/24 00:53:15;;;;;;;3.45;3.15;;;;;;;22.25;100.00;97885.47;1223049;75;2929750;-69
2023/08/24 00:55:47;;;;;;;4.50;4.10;;;;;;;22.07;100.00;97879.56;1223424;75;2922602;-66
2023/08/24 00:58:21;;;;;;;4.95;3.75;;;;;;;22.24;100.00;97875.59;1223784;75;2922505;-68
2023/08/24 01:00:58;;;;;;;4.95;4.45;;;;;;;22.13;100.00;97882.22;1222653;75;2886943;-70
2023/08/24 01:03:31;;;;;;;4.15;3.75;;;;;;;22.31;100.00;97878.41;1223109;75;2926006;-68
2023/08/24 01:06:03;;;;;;;3.50;3.20;;;;;;;22.29;100.00;97872.63;1223038;75;2927133;-67
2023/08/24 01:08:36;;;;;;;3.70;3.40;;;;;;;22.15;100.00;97871.25;1223463;75;2924021;-66
2023/08/24 01:11:16;;;;;;;7.15;4.25;;;;;;;21.87;100.00;97869.25;1224098;75;2935280;-66
2023/08/24 01:13:59;;;;;;;4.70;4.20;;;;;;;21.82;100.00;97864.56;1224449;75;2944383;-67
2023/08/24 01:16:40;;;;;;;3.65;3.30;;;;;;;22.18;100.00;97870.16;1222995;75;2925020;-67
2023/08/24 01:19:29;;;;;;;3.95;3.55;;;;;;;21.98;100.00;97868.19;1223835;75;2931988;-66
2023/08/24 01:22:07;;;;;;;5.05;3.30;;;;;;;21.94;100.00;97879.69;1224174;75;2936048;-67
2023/08/24 01:24:48;;;;;;;3.65;3.25;;;;;;;21.99;100.00;97876.00;1222893;75;2923759;-65
2023/08/24 01:27:25;;;;;;;3.75;3.45;;;;;;;22.11;100.00;97873.66;1223898;75;2925432;-64
2023/08/24 01:29:59;;;;;;;3.30;3.00;;;;;;;22.13;100.00;97873.84;1223641;75;2929614;-67
2023/08/24 01:32:33;;;;;;;2.95;2.65;;;;;;;22.12;100.00;97870.28;1222917;75;2923731;-67
2023/08/24 01:35:09;;;;;;;2.60;2.30;;;;;;;22.02;100.00;97869.31;1223827;75;2925464;-66
2023/08/24 01:37:42;;;;;;;4.55;3.20;;;;;;;21.87;100.00;97872.03;1221913;75;2953046;-66
2023/08/24 01:40:24;;;;;;;3.40;2.90;;;;;;;22.03;100.00;97870.06;1224058;75;2927096;-67
2023/08/24 01:43:03;;;;;;;3.25;2.90;;;;;;;21.94;100.00;97865.75;1223916;75;2921680;-64
2023/08/24 01:45:37;;;;;;;5.00;3.55;;;;;;;21.86;100.00;97870.53;1223760;75;2942471;-65
2023/08/24 01:48:12;;;;;;;4.90;4.40;;;;;;;21.42;100.00;97878.78;1224066;75;2944957;-68
2023/08/24 01:50:45;;;;;;;6.60;5.35;;;;;;;21.38;100.00;97883.91;1223547;75;2924315;-68
2023/08/24 01:53:18;;;;;;;10.45;6.15;;;;;;;21.40;100.00;97876.53;1222247;75;2919538;-69
2023/08/24 01:55:50;;;;;;;8.10;5.80;;;;;;;21.36;100.00;97878.13;1222057;75;2926545;-67
2023/08/24 01:58:29;;;;;;;7.85;7.05;;;;;;;21.42;100.00;97876.72;1223463;75;2923480;-67
2023/08/24 02:01:01;;;;;;;;;;;;;;;21.52;100.00;97882.56;1224829;75;2924798;-68
2023/08/24 02:03:33;;;;;;;8.35;6.00;;;;;;;21.56;100.00;97871.81;1224154;75;2929213;-66
2023/08/24 02:06:06;;;;;;;5.45;4.90;;;;;;;21.76;100.00;97869.53;1223450;75;2920117;-68
2023/08/24 02:08:36;;;;;;;4.10;3.70;;;;;;;21.74;100.00;97870.06;1224498;75;2921210;-66
2023/08/24 02:11:10;;;;;;;4.85;4.35;;;;;;;21.75;100.00;97876.41;1224043;75;2875319;-67
2023/08/24 02:13:46;;;;;;;4.90;4.40;;;;;;;21.66;100.00;97880.44;1223863;75;2922754;-66
2023/08/24 02:16:18;;;;;;;4.90;4.40;;;;;;;21.55;100.00;97878.69;1224147;75;2931030;-66
2023/08/24 02:18:51;;;;;;;5.05;4.55;;;;;;;21.51;100.00;97864.34;1223422;75;2929263;-66
2023/08/24 02:21:23;;;;;;;5.60;4.85;;;;;;;21.52;100.00;97859.53;1224046;75;2929726;-68
2023/08/24 02:23:56;;;;;;;5.20;4.70;;;;;;;21.60;100.00;97863.09;1222993;75;2923779;-65
2023/08/24 02:26:29;;;;;;;4.70;4.30;;;;;;;21.74;100.00;97858.94;1221955;75;2924551;-68
2023/08/24 02:29:04;;;;;;;3.45;3.15;;;;;;;21.86;100.00;97865.72;1223616;75;2926400;-68
2023/08/24 02:31:37;;;;;;;3.10;2.80;;;;;;;21.76;100.00;97863.97;1224025;75;2919497;-66
2023/08/24 02:34:09;;;;;;;3.55;3.00;;;;;;;21.73;100.00;97857.44;1222688;75;2927348;-66
2023/08/24 02:36:42;;;;;;;3.05;2.75;;;;;;;21.74;100.00;97858.19;1223824;75;2924818;-68
2023/08/24 02:39:15;;;;;;;3.15;2.85;;;;;;;21.74;100.00;97858.94;1223504;75;2922730;-66
2023/08/24 02:41:48;;;;;;;2.50;2.30;;;;;;;21.72;100.00;97858.75;1224626;75;2922808;-68
2023/08/24 02:44:24;;;;;;;4.10;3.70;;;;;;;21.30;100.00;97869.19;1223696;75;2920999;-65
2023/08/24 02:46:58;;;;;;;7.05;6.35;;;;;;;20.91;100.00;97856.97;1224048;75;2922603;-68
2023/08/24 02:49:31;;;;;;;5.90;5.30;;;;;;;21.21;100.00;97862.81;1223733;75;2922562;-67
2023/08/24 02:52:03;;;;;;;4.80;4.40;;;;;;;21.11;100.00;97877.72;1224148;75;2923626;-67
2023/08/24 02:54:36;;;;;;;6.30;5.60;;;;;;;20.98;100.00;97870.19;1224344;75;2919884;-68
2023/08/24 02:57:09;;;;;;;5.80;5.25;;;;;;;20.96;100.00;97870.72;1223766;75;2920678;-67
2023/08/24 02:59:44;;;;;;;6.95;5.70;;;;;;;21.01;100.00;97871.88;1223620;75;2929458;-66
2023/08/24 03:02:17;;;;;;;5.50;5.00;;;;;;;21.33;100.00;97868.81;1224697;75;2924756;-67
2023/08/24 03:04:50;;;;;;;6.25;5.15;;;;;;;21.08;100.00;97870.47;1223633;75;2921436;-68
2023/08/24 03:07:22;;;;;;;5.95;5.35;;;;;;;21.18;100.00;97875.00;1223924;75;2926145;-69
2023/08/24 03:09:55;;;;;;;5.30;4.30;;;;;;;21.21;100.00;97871.16;1224218;75;2926334;-66
2023/08/24 03:12:27;;;;;;;4.10;3.70;;;;;;;21.20;100.00;97872.44;1223758;75;2917374;-68
2023/08/24 03:15:03;;;;;;;3.45;3.15;;;;;;;21.25;100.00;97877.13;1220419;75;3040368;-67
2023/08/24 03:17:35;;;;;;;3.15;2.85;;;;;;;21.24;100.00;97880.47;1223126;75;2921200;-67
2023/08/24 03:20:11;;;;;;;5.45;4.60;;;;;;;20.96;100.00;97890.22;1224870;75;2850623;-66
2023/08/24 03:22:43;;;;;;;6.55;5.35;;;;;;;20.80;100.00;97888.56;1223859;75;2926370;-69
2023/08/24 03:25:16;;;;;;;7.10;4.30;;;;;;;20.98;100.00;97887.63;1222840;75;2929863;-66
2023/08/24 03:27:49;;;;;;;5.05;4.20;;;;;;;21.08;100.00;97887.91;1224016;75;2938144;-67
2023/08/24 03:30:24;;;;;;;5.15;3.85;;;;;;;21.11;100.00;97889.59;1223516;75;2928831;-67
2023/08/24 03:32:58;;;;;;;3.85;3.35;;;;;;;21.09;100.00;97891.44;1224062;75;2925652;-66
2023/08/24 03:35:31;;;;;;;3.75;3.20;;;;;;;21.09;100.00;97891.44;1222646;75;2926840;-65
2023/08/24 03:38:04;;;;;;;3.70;3.40;;;;;;;21.13;100.00;97898.16;1223460;75;2929346;-70
2023/08/24 03:40:37;;;;;;;3.75;2.90;;;;;;;21.13;100.00;97895.38;1223868;75;2922113;-67
2023/08/24 03:43:09;;;;;;;6.00;4.00;;;;;;;20.77;100.00;97901.50;1194523;75;5296569;-68
2023/08/24 03:45:46;;;;;;;5.95;4.60;;;;;;;20.73;100.00;97898.31;1222828;75;2924735;-69
2023/08/24 03:48:19;;;;;;;4.70;4.30;;;;;;;20.99;100.00;97891.16;1224439;75;2922453;-68
2023/08/24 03:50:51;;;;;;;3.80;3.50;;;;;;;20.99;100.00;97894.69;1223429;75;2926234;-67
2023/08/24 03:53:24;;;;;;;4.35;3.95;;;;;;;20.68;100.00;97893.63;1223302;75;2927154;-67
2023/08/24 03:55:57;;;;;;;3.70;3.30;;;;;;;20.89;100.00;97892.91;1222882;75;2926209;-67
2023/08/24 03:58:30;;;;;;;3.20;2.70;;;;;;;20.92;100.00;97889.03;1223600;75;2922340;-67
2023/08/24 04:01:06;;;;;;;2.95;2.70;;;;;;;21.01;100.00;97888.59;1221549;75;2933226;-68
2023/08/24 04:03:39;;;;;;;2.95;2.65;;;;;;;21.05;100.00;97889.00;1223017;75;2926285;-68
2023/08/24 04:06:12;;;;;;;3.10;2.60;;;;;;;21.00;100.00;97887.84;1221953;75;2924556;-66
2023/08/24 04:08:44;;;;;;;2.90;2.60;;;;;;;21.03;100.00;97888.78;1223496;75;2920754;-69
2023/08/24 04:11:17;;;;;;;2.35;2.15;;;;;;;20.98;100.00;97893.22;1223021;75;2924854;-68
2023/08/24 04:13:50;;;;;;;2.35;2.15;;;;;;;20.98;100.00;97896.00;1223465;75;2928657;-69
2023/08/24 04:16:25;;;;;;;2.30;2.10;;;;;;;21.03;100.00;97897.88;1222275;75;2928507;-67
2023/08/24 04:18:57;;;;;;;3.05;2.70;;;;;;;21.05;100.00;97902.94;1223604;75;2932249;-68
2023/08/24 04:21:30;;;;;;;4.60;4.10;;;;;;;21.03;100.00;97899.94;1224065;75;2921042;-70
2023/08/24 04:24:03;;;;;;;4.80;4.05;;;;;;;21.01;100.00;97894.91;1222960;75;2925796;-69
2023/08/24 04:26:36;;;;;;;3.75;3.35;;;;;;;21.05;100.00;97897.34;1222835;75;2926322;-69
2023/08/24 04:29:09;;;;;;;4.00;3.55;;;;;;;21.06;100.00;97896.06;1224415;75;2919971;-67
2023/08/24 04:31:44;;;;;;;5.00;4.20;;;;;;;21.06;100.00;97907.94;1223483;75;2925972;-67
2023/08/24 04:34:16;;;;;;;4.30;3.75;;;;;;;21.08;100.00;97903.88;1223414;75;2923808;-69
2023/08/24 04:36:49;;;;;;;4.55;4.10;;;;;;;21.03;100.00;97905.50;1224325;75;2924455;-68
2023/08/24 04:39:22;;;;;;;7.75;5.85;;;;;;;21.07;100.00;97911.50;1221339;75;2936285;-70
2023/08/24 04:41:54;;;;;;;9.10;8.15;;;;;;;20.98;100.00;97914.72;1223310;75;2923817;-68
2023/08/24 04:44:27;;;;;;;8.95;7.75;;;;;;;21.05;100.00;97905.72;1223704;75;2923057;-71
2023/08/24 04:47:02;;;;;;;5.70;5.10;;;;;;;21.15;100.00;97915.09;1224009;75;2920225;-71
2023/08/24 04:49:35;;;;;;;5.40;4.90;;;;;;;21.03;100.00;97914.59;1219960;75;3004721;-68
2023/08/24 04:52:08;;;;;;;4.40;4.00;;;;;;;21.24;100.00;97916.66;1224218;75;2928224;-71
2023/08/24 04:54:41;;;;;;;4.40;3.80;;;;;;;21.24;100.00;97922.97;1222577;83;2924605;-70
2023/08/24 04:57:14;;;;;;;4.65;3.90;;;;;;;21.25;100.00;97921.66;1222879;75;2928207;-68
2023/08/24 04:59:46;;;;;;;3.55;3.20;;;;;;;21.36;100.00;97911.53;1223560;75;2927977;-69
2023/08/24 05:02:22;;;;;;;5.10;3.20;;;;;;;21.40;100.00;97911.97;1224638;75;2926669;-68
2023/08/24 05:04:54;;;;;;;4.05;3.65;;;;;;;21.45;100.00;97919.44;1223237;75;2931202;-71
2023/08/24 05:07:27;;;;;;;4.55;3.30;;;;;;;21.52;100.00;97918.78;1223754;75;2929480;-69
2023/08/24 05:10:00;;;;;;;2.90;2.70;;;;;;;21.55;100.00;97920.47;1221348;75;3022703;-72
2023/08/24 05:12:35;;;;;;;3.50;3.00;;;;;;;21.60;100.00;97916.81;1222068;75;2924656;-70
2023/08/24 05:15:09;;;;;;;3.90;2.95;;;;;;;21.66;100.00;97913.88;1223443;75;2926703;-68
2023/08/24 05:17:44;;;;;;;3.00;2.70;;;;;;;21.73;100.00;97921.53;1223417;75;2921382;-68
2023/08/24 05:20:18;;;;;;;3.15;2.80;;;;;;;21.78;100.00;97929.00;1223814;75;2927145;-70
2023/08/24 05:22:51;;;;;;;2.90;2.60;;;;;;;21.77;100.00;97927.53;1223102;75;2922143;-70
2023/08/24 05:25:24;;;;;;;6.15;3.65;;;;;;;21.77;100.00;97926.75;1221804;75;2926596;-69
2023/08/24 05:27:56;;;;;;;5.60;3.05;;;;;;;21.95;100.00;97928.56;1223359;75;2919661;-67
2023/08/24 05:30:29;;;;;;;3.60;3.30;;;;;;;22.10;100.00;97928.69;1220417;75;2923996;-71
2023/08/24 05:33:04;;;;;;;3.55;3.05;;;;;;;22.20;100.00;97928.16;1223298;75;2930893;-70
2023/08/24 05:35:37;;;;;;;2.75;2.55;;;;;;;22.27;100.00;97927.47;1219652;75;3031696;-69
2023/08/24 05:38:10;;;;;;;4.10;3.30;;;;;;;22.23;100.00;97925.06;1218472;75;3098103;-71
2023/08/24 05:40:42;;;;;;;3.15;2.75;;;;;;;22.41;100.00;97928.84;1223270;75;2932643;-70
2023/08/24 05:43:15;;;;;;;3.45;3.00;;;;;;;22.45;100.00;97932.03;1223179;75;2925193;-69
2023/08/24 05:45:49;;;;;;;3.45;2.80;;;;;;;22.51;100.00;97924.25;1222939;75;2930036;-72
2023/08/24 05:48:24;;;;;;;3.20;2.70;;;;;;;22.67;100.00;97927.09;1223587;75;2920009;-69
2023/08/24 05:50:57;;;;;;;3.20;2.90;;;;;;;22.70;100.00;97928.78;1223396;75;2921288;-70
2023/08/24 05:53:29;;;;;;;7.80;5.50;;;;;;;22.64;100.00;97920.59;1223424;75;2923091;-70
2023/08/24 05:56:03;;;;;;;9.80;7.55;;;;;;;22.67;100.00;97921.53;1222929;75;2924345;-71
2023/08/24 05:58:35;;;;;;;9.05;7.90;;;;;;;22.77;100.00;97926.00;1223982;75;2926320;-72
2023/08/24 06:01:08;;;;;;;8.55;7.60;;;;;;;22.96;100.00;97930.53;1224559;75;2931334;-72
2023/08/24 06:03:43;;;;;;;7.65;6.85;;;;;;;23.09;100.00;97924.06;1222764;75;2926980;-70
2023/08/24 06:06:16;;;;;;;11.30;7.65;;;;;;;23.11;100.00;97921.47;1223049;75;2926842;-68
2023/08/24 06:08:48;;;;;;;9.85;7.70;;;;;;;23.20;100.00;97929.31;1222268;75;2936172;-72
2023/08/24 06:11:21;;;;;;;10.80;8.10;;;;;;;23.41;100.00;97929.16;1221313;75;2927758;-70
2023/08/24 06:13:54;;;;;;;8.20;7.40;;;;;;;23.57;100.00;97941.06;1221637;75;2929132;-70
2023/08/24 06:16:27;;;;;;;7.70;6.60;;;;;;;23.76;100.00;97932.34;1222610;75;2921100;-72
2023/08/24 06:19:03;;;;;;;9.25;7.60;;;;;;;23.79;100.00;97929.19;1221697;75;2931887;-70
2023/08/24 06:21:35;;;;;;;10.25;7.10;;;;;;;23.83;100.00;97922.47;1223439;75;2930633;-70
2023/08/24 06:24:09;;;;;;;7.60;6.55;;;;;;;24.09;100.00;97929.69;1223518;75;2923852;-70
